La Grande Rivière Airport
CYGL : now visible

Airfield :











YOU CAN JOIN US ON...

 
LOGIN :

Register | Disclaimer

   EN    FR    IT 

 









Legend :    VFR   Marginal VFR   IFR   Intensive IFR   Very Intensive IFR
Visi :
Ceiling :
>= 8 km
>= 3000ft
5 to 8 km
1000 to 3000 ft
1500m to 5 km
500 to 1000 ft
800 to 1500m
200 to 500 ft
< 800m
< 200 ft
Symbols :   Thunderstorms  Fog  Heavy snow  Heavy precipitations  Wind > 20 kt







- Airport Elevation : 639 ft
- IATA code : YGL


CYGL - La Grande Rivière

CURRENT METAR :
  • 222300Z 32007KT 15SM FEW025 FEW030 SCT240 16/09 A2995 RMK CF1SC2CI1 CF TR SLP148 DENSITY ALT 1000FT

EXPIRED METARs :
  • 222200Z 34006KT 300V030 15SM FEW023 FEW033 SCT240 17/09 A2994 RMK CF1SC1CI1 SLP148 DENSITY ALT 1000FT
  • 222100Z 36005KT 330V040 15SM FEW033 SCT042 BKN240 16/09 A2995 RMK SC1SC3CI1 SLP149 DENSITY ALT 900FT

TAF TAF CYGL
Valid from the 23 at 00:00 until the 24 at 00:00 UTC


222338Z 2300/2324 32008KT P6SM SCT030
TEMPO 2300/2302 BKN030
FM230200 02008KT P6SM BKN020
TEMPO 2302/2306 BKN025
FM230600 36010KT P6SM FEW008
PROB30 2306/2312 BKN008 RMK NXT FCST BY 230600Z
No reported NOTAMs for that airfield.



MET'MAP, your aeronautical weather chart ! - Copyright ORBIFLY December 2007 - Disclaimer

ORBIFLY MET'MAP TEAM :

Programming & Development : Alexandra Zaïnal
Concept & Development : Baudouin d'Aumeries
Co-Development & Prog : Marc-Olivier Méhu
Technical & hardware support : Manuel Goepfert

Contact : metmap@orbifly.com




SOURCES & CREDITS :

   NOAA       Earth
Advisory